Terminal Aerodrome Forecast
Issued by NWS

Home | Current Version | Previous Version | Text Only | Print | Product List | Glossary On
Versions: 1 2 3 4 5 6 7 8 9 10 11 12 13 14 15 16 17 18 19 20 21 22 23 24 25 26
000
FTPA31 PHFO 241748
TAFHOG
TAF
PHOG 241748Z 2418/2518 04011KT P6SM SCT030
     FM242100 05016G25KT P6SM FEW025 SCT050
     FM250600 05010KT P6SM FEW025 SCT050
     AMD LTD TO VIS AND WIND 2509/2516=

USA.gov is the U.S. government's official web portal to all federal, state and local government web resources and services.